sensor_id;sensor_type;location;lat;lon;timestamp;temperature;humidity
52321;DHT22;38261;54.090;13.382;2023-07-13T00:01:21;18.20;99.90
52321;DHT22;38261;54.090;13.382;2023-07-13T00:02:45;18.20;99.90
52321;DHT22;38261;54.090;13.382;2023-07-13T00:04:07;18.20;99.90
52321;DHT22;38261;54.090;13.382;2023-07-13T00:05:30;18.20;99.90
52321;DHT22;38261;54.090;13.382;2023-07-13T00:06:53;18.20;99.90
52321;DHT22;38261;54.090;13.382;2023-07-13T00:08:15;18.20;99.90
52321;DHT22;38261;54.090;13.382;2023-07-13T00:09:37;18.20;99.90
52321;DHT22;38261;54.090;13.382;2023-07-13T00:11:03;18.20;99.90
52321;DHT22;38261;54.090;13.382;2023-07-13T00:12:33;18.20;99.90
52321;DHT22;38261;54.090;13.382;2023-07-13T00:13:56;18.20;99.90
52321;DHT22;38261;54.090;13.382;2023-07-13T00:15:26;18.20;99.90
52321;DHT22;38261;54.090;13.382;2023-07-13T00:16:48;18.20;99.90
52321;DHT22;38261;54.090;13.382;2023-07-13T00:18:11;18.20;99.90
52321;DHT22;38261;54.090;13.382;2023-07-13T00:19:33;18.20;99.90
52321;DHT22;38261;54.090;13.382;2023-07-13T00:20:58;18.20;99.90
52321;DHT22;38261;54.090;13.382;2023-07-13T00:22:26;18.20;99.90
52321;DHT22;38261;54.090;13.382;2023-07-13T00:23:49;18.20;99.90
52321;DHT22;38261;54.090;13.382;2023-07-13T00:25:11;18.20;99.90
52321;DHT22;38261;54.090;13.382;2023-07-13T00:26:33;18.10;99.90
52321;DHT22;38261;54.090;13.382;2023-07-13T00:27:56;18.20;99.90
52321;DHT22;38261;54.090;13.382;2023-07-13T00:29:18;18.10;99.90
52321;DHT22;38261;54.090;13.382;2023-07-13T00:30:40;18.10;99.90
52321;DHT22;38261;54.090;13.382;2023-07-13T00:32:04;18.10;99.90
52321;DHT22;38261;54.090;13.382;2023-07-13T00:33:29;18.10;99.90
52321;DHT22;38261;54.090;13.382;2023-07-13T00:34:52;18.10;99.90
52321;DHT22;38261;54.090;13.382;2023-07-13T00:36:14;18.10;99.90
52321;DHT22;38261;54.090;13.382;2023-07-13T00:37:36;18.00;99.90
52321;DHT22;38261;54.090;13.382;2023-07-13T00:38:58;18.00;99.90
52321;DHT22;38261;54.090;13.382;2023-07-13T00:40:20;18.00;99.90
52321;DHT22;38261;54.090;13.382;2023-07-13T00:41:42;18.00;99.90
52321;DHT22;38261;54.090;13.382;2023-07-13T00:43:18;18.00;99.90
52321;DHT22;38261;54.090;13.382;2023-07-13T00:44:40;17.90;99.90
52321;DHT22;38261;54.090;13.382;2023-07-13T00:46:17;18.00;99.90
52321;DHT22;38261;54.090;13.382;2023-07-13T00:47:40;18.00;99.90
52321;DHT22;38261;54.090;13.382;2023-07-13T00:49:09;18.00;99.90
52321;DHT22;38261;54.090;13.382;2023-07-13T00:50:32;17.90;99.90
52321;DHT22;38261;54.090;13.382;2023-07-13T00:52:07;17.90;99.90
52321;DHT22;38261;54.090;13.382;2023-07-13T00:53:31;17.90;99.90
52321;DHT22;38261;54.090;13.382;2023-07-13T00:54:54;17.90;99.90
52321;DHT22;38261;54.090;13.382;2023-07-13T00:56:17;17.90;99.90
52321;DHT22;38261;54.090;13.382;2023-07-13T00:57:40;17.80;99.90
52321;DHT22;38261;54.090;13.382;2023-07-13T00:59:05;17.80;99.90
52321;DHT22;38261;54.090;13.382;2023-07-13T01:00:29;17.80;99.90
52321;DHT22;38261;54.090;13.382;2023-07-13T01:01:51;17.70;99.90
52321;DHT22;38261;54.090;13.382;2023-07-13T01:03:15;17.70;99.90
52321;DHT22;38261;54.090;13.382;2023-07-13T01:04:37;17.60;99.90
52321;DHT22;38261;54.090;13.382;2023-07-13T01:06:00;17.60;99.90
52321;DHT22;38261;54.090;13.382;2023-07-13T01:07:23;17.50;99.90
52321;DHT22;38261;54.090;13.382;2023-07-13T01:08:45;17.50;99.90
52321;DHT22;38261;54.090;13.382;2023-07-13T01:10:08;17.40;99.90
52321;DHT22;38261;54.090;13.382;2023-07-13T01:11:30;17.40;99.90
52321;DHT22;38261;54.090;13.382;2023-07-13T01:12:53;17.30;99.90
52321;DHT22;38261;54.090;13.382;2023-07-13T01:14:16;17.30;99.90
52321;DHT22;38261;54.090;13.382;2023-07-13T01:15:41;17.30;99.90
52321;DHT22;38261;54.090;13.382;2023-07-13T01:17:03;17.20;99.90
52321;DHT22;38261;54.090;13.382;2023-07-13T01:18:27;17.20;99.90
52321;DHT22;38261;54.090;13.382;2023-07-13T01:19:50;17.20;99.90
52321;DHT22;38261;54.090;13.382;2023-07-13T01:21:12;17.10;99.90
52321;DHT22;38261;54.090;13.382;2023-07-13T01:22:34;17.10;99.90
52321;DHT22;38261;54.090;13.382;2023-07-13T01:23:57;17.10;99.90
52321;DHT22;38261;54.090;13.382;2023-07-13T01:25:20;17.00;99.90
52321;DHT22;38261;54.090;13.382;2023-07-13T01:26:43;17.00;99.90
52321;DHT22;38261;54.090;13.382;2023-07-13T01:28:08;17.00;99.90
52321;DHT22;38261;54.090;13.382;2023-07-13T01:29:35;16.90;99.90
52321;DHT22;38261;54.090;13.382;2023-07-13T01:31:04;16.90;99.90
52321;DHT22;38261;54.090;13.382;2023-07-13T01:32:26;16.90;99.90
52321;DHT22;38261;54.090;13.382;2023-07-13T01:33:48;16.80;99.90
52321;DHT22;38261;54.090;13.382;2023-07-13T01:35:10;16.80;99.90
52321;DHT22;38261;54.090;13.382;2023-07-13T01:36:34;16.80;99.90
52321;DHT22;38261;54.090;13.382;2023-07-13T01:37:57;16.80;99.90
52321;DHT22;38261;54.090;13.382;2023-07-13T01:39:21;16.80;99.90
52321;DHT22;38261;54.090;13.382;2023-07-13T01:40:44;16.80;99.90
52321;DHT22;38261;54.090;13.382;2023-07-13T01:42:06;16.90;99.90
52321;DHT22;38261;54.090;13.382;2023-07-13T01:43:29;16.90;99.90
52321;DHT22;38261;54.090;13.382;2023-07-13T01:44:51;16.90;99.90
52321;DHT22;38261;54.090;13.382;2023-07-13T01:46:13;16.90;99.90
52321;DHT22;38261;54.090;13.382;2023-07-13T01:47:44;16.90;99.90
52321;DHT22;38261;54.090;13.382;2023-07-13T01:49:06;16.90;99.90
52321;DHT22;38261;54.090;13.382;2023-07-13T01:50:28;16.90;99.90
52321;DHT22;38261;54.090;13.382;2023-07-13T01:51:50;17.00;99.90
52321;DHT22;38261;54.090;13.382;2023-07-13T01:53:13;17.00;99.90
52321;DHT22;38261;54.090;13.382;2023-07-13T01:54:35;17.00;99.90
52321;DHT22;38261;54.090;13.382;2023-07-13T01:55:57;17.00;99.90
52321;DHT22;38261;54.090;13.382;2023-07-13T01:57:19;17.00;99.90
52321;DHT22;38261;54.090;13.382;2023-07-13T01:58:41;17.00;99.90
52321;DHT22;38261;54.090;13.382;2023-07-13T02:00:06;17.00;99.90
52321;DHT22;38261;54.090;13.382;2023-07-13T02:01:28;17.00;99.90
52321;DHT22;38261;54.090;13.382;2023-07-13T02:02:51;17.00;99.90
52321;DHT22;38261;54.090;13.382;2023-07-13T02:04:13;17.00;99.90
52321;DHT22;38261;54.090;13.382;2023-07-13T02:05:36;17.00;99.90
52321;DHT22;38261;54.090;13.382;2023-07-13T02:06:58;17.00;99.90
52321;DHT22;38261;54.090;13.382;2023-07-13T02:08:20;17.00;99.90
52321;DHT22;38261;54.090;13.382;2023-07-13T02:09:42;17.00;99.90
52321;DHT22;38261;54.090;13.382;2023-07-13T02:11:04;17.00;99.90
52321;DHT22;38261;54.090;13.382;2023-07-13T02:12:27;17.00;99.90
52321;DHT22;38261;54.090;13.382;2023-07-13T02:13:49;17.00;99.90
52321;DHT22;38261;54.090;13.382;2023-07-13T02:15:11;17.00;99.90
52321;DHT22;38261;54.090;13.382;2023-07-13T02:16:34;17.00;99.90
52321;DHT22;38261;54.090;13.382;2023-07-13T02:17:56;17.00;99.90
52321;DHT22;38261;54.090;13.382;2023-07-13T02:19:18;17.00;99.90
52321;DHT22;38261;54.090;13.382;2023-07-13T02:20:41;17.00;99.90
52321;DHT22;38261;54.090;13.382;2023-07-13T02:22:03;17.00;99.90
52321;DHT22;38261;54.090;13.382;2023-07-13T02:23:25;17.10;99.90
52321;DHT22;38261;54.090;13.382;2023-07-13T02:24:47;17.10;99.90
52321;DHT22;38261;54.090;13.382;2023-07-13T02:26:10;17.10;99.90
52321;DHT22;38261;54.090;13.382;2023-07-13T02:27:32;17.10;99.90
52321;DHT22;38261;54.090;13.382;2023-07-13T02:28:54;17.10;99.90
52321;DHT22;38261;54.090;13.382;2023-07-13T02:30:16;17.10;99.90
52321;DHT22;38261;54.090;13.382;2023-07-13T02:31:39;17.10;99.90
52321;DHT22;38261;54.090;13.382;2023-07-13T02:33:01;17.10;99.90
52321;DHT22;38261;54.090;13.382;2023-07-13T02:34:23;17.10;99.90
52321;DHT22;38261;54.090;13.382;2023-07-13T02:35:45;17.10;99.90
52321;DHT22;38261;54.090;13.382;2023-07-13T02:37:07;17.10;99.90
52321;DHT22;38261;54.090;13.382;2023-07-13T02:38:29;17.10;99.90
52321;DHT22;38261;54.090;13.382;2023-07-13T02:39:51;17.00;99.90
52321;DHT22;38261;54.090;13.382;2023-07-13T02:41:13;17.10;99.90
52321;DHT22;38261;54.090;13.382;2023-07-13T02:42:35;17.10;99.90
52321;DHT22;38261;54.090;13.382;2023-07-13T02:44:01;17.10;99.90
52321;DHT22;38261;54.090;13.382;2023-07-13T02:45:26;17.10;99.90
52321;DHT22;38261;54.090;13.382;2023-07-13T02:46:49;17.10;99.90
52321;DHT22;38261;54.090;13.382;2023-07-13T02:48:11;17.00;99.90
52321;DHT22;38261;54.090;13.382;2023-07-13T02:49:33;17.00;99.90
52321;DHT22;38261;54.090;13.382;2023-07-13T02:50:55;17.10;99.90
52321;DHT22;38261;54.090;13.382;2023-07-13T02:52:17;17.00;99.90
52321;DHT22;38261;54.090;13.382;2023-07-13T02:53:40;17.00;99.90
52321;DHT22;38261;54.090;13.382;2023-07-13T02:55:02;17.00;99.90
52321;DHT22;38261;54.090;13.382;2023-07-13T02:56:26;17.00;99.90
52321;DHT22;38261;54.090;13.382;2023-07-13T02:57:48;16.90;99.90
52321;DHT22;38261;54.090;13.382;2023-07-13T02:59:11;16.90;99.90
52321;DHT22;38261;54.090;13.382;2023-07-13T03:00:34;16.90;99.90
52321;DHT22;38261;54.090;13.382;2023-07-13T03:01:56;16.90;99.90
52321;DHT22;38261;54.090;13.382;2023-07-13T03:03:18;16.90;99.90
52321;DHT22;38261;54.090;13.382;2023-07-13T03:04:40;16.80;99.90
52321;DHT22;38261;54.090;13.382;2023-07-13T03:06:04;16.80;99.90
52321;DHT22;38261;54.090;13.382;2023-07-13T03:07:27;16.80;99.90
52321;DHT22;38261;54.090;13.382;2023-07-13T03:08:49;16.80;99.90
52321;DHT22;38261;54.090;13.382;2023-07-13T03:10:12;16.80;99.90
52321;DHT22;38261;54.090;13.382;2023-07-13T03:11:34;16.70;99.90
52321;DHT22;38261;54.090;13.382;2023-07-13T03:12:56;16.70;99.90
52321;DHT22;38261;54.090;13.382;2023-07-13T03:14:19;16.70;99.90
52321;DHT22;38261;54.090;13.382;2023-07-13T03:15:41;16.70;99.90
52321;DHT22;38261;54.090;13.382;2023-07-13T03:17:03;16.70;99.90
52321;DHT22;38261;54.090;13.382;2023-07-13T03:18:28;16.80;99.90
52321;DHT22;38261;54.090;13.382;2023-07-13T03:19:50;16.80;99.90
52321;DHT22;38261;54.090;13.382;2023-07-13T03:21:13;16.80;99.90
52321;DHT22;38261;54.090;13.382;2023-07-13T03:22:35;16.80;99.90
52321;DHT22;38261;54.090;13.382;2023-07-13T03:23:58;16.80;99.90
52321;DHT22;38261;54.090;13.382;2023-07-13T03:25:20;16.90;99.90
52321;DHT22;38261;54.090;13.382;2023-07-13T03:26:43;16.90;99.90
52321;DHT22;38261;54.090;13.382;2023-07-13T03:28:05;16.90;99.90
52321;DHT22;38261;54.090;13.382;2023-07-13T03:29:27;16.90;99.90
52321;DHT22;38261;54.090;13.382;2023-07-13T03:30:59;17.00;99.90
52321;DHT22;38261;54.090;13.382;2023-07-13T03:32:21;17.00;99.90
52321;DHT22;38261;54.090;13.382;2023-07-13T03:33:44;17.10;99.90
52321;DHT22;38261;54.090;13.382;2023-07-13T03:35:06;17.10;99.90
52321;DHT22;38261;54.090;13.382;2023-07-13T03:36:30;17.10;99.90
52321;DHT22;38261;54.090;13.382;2023-07-13T03:37:52;17.20;99.90
52321;DHT22;38261;54.090;13.382;2023-07-13T03:39:14;17.20;99.90
52321;DHT22;38261;54.090;13.382;2023-07-13T03:40:36;17.20;99.90
52321;DHT22;38261;54.090;13.382;2023-07-13T03:41:58;17.20;99.90
52321;DHT22;38261;54.090;13.382;2023-07-13T03:43:21;17.20;99.90
52321;DHT22;38261;54.090;13.382;2023-07-13T03:44:43;17.20;99.90
52321;DHT22;38261;54.090;13.382;2023-07-13T03:46:12;17.20;99.90
52321;DHT22;38261;54.090;13.382;2023-07-13T03:47:35;17.30;99.90
52321;DHT22;38261;54.090;13.382;2023-07-13T03:48:57;17.30;99.90
52321;DHT22;38261;54.090;13.382;2023-07-13T03:50:19;17.40;99.90
52321;DHT22;38261;54.090;13.382;2023-07-13T03:51:41;17.40;99.90
52321;DHT22;38261;54.090;13.382;2023-07-13T03:53:03;17.50;99.90
52321;DHT22;38261;54.090;13.382;2023-07-13T03:54:26;17.80;99.90
52321;DHT22;38261;54.090;13.382;2023-07-13T03:55:48;18.60;99.90
52321;DHT22;38261;54.090;13.382;2023-07-13T03:57:10;19.40;99.90
52321;DHT22;38261;54.090;13.382;2023-07-13T03:58:34;20.40;99.90
52321;DHT22;38261;54.090;13.382;2023-07-13T03:59:57;21.30;99.90
52321;DHT22;38261;54.090;13.382;2023-07-13T04:01:21;22.20;99.90
52321;DHT22;38261;54.090;13.382;2023-07-13T04:02:43;22.60;99.90
52321;DHT22;38261;54.090;13.382;2023-07-13T04:04:07;22.70;99.90
52321;DHT22;38261;54.090;13.382;2023-07-13T04:05:29;22.60;99.90
52321;DHT22;38261;54.090;13.382;2023-07-13T04:06:51;22.50;99.90
52321;DHT22;38261;54.090;13.382;2023-07-13T04:08:15;22.80;99.90
52321;DHT22;38261;54.090;13.382;2023-07-13T04:09:37;23.20;99.90
52321;DHT22;38261;54.090;13.382;2023-07-13T04:11:00;23.80;99.90
52321;DHT22;38261;54.090;13.382;2023-07-13T04:12:22;24.40;99.90
52321;DHT22;38261;54.090;13.382;2023-07-13T04:13:44;24.90;99.90
52321;DHT22;38261;54.090;13.382;2023-07-13T04:15:07;25.40;99.90
52321;DHT22;38261;54.090;13.382;2023-07-13T04:16:29;25.80;99.90
52321;DHT22;38261;54.090;13.382;2023-07-13T04:17:51;26.20;99.90
52321;DHT22;38261;54.090;13.382;2023-07-13T04:19:14;26.70;99.90
52321;DHT22;38261;54.090;13.382;2023-07-13T04:20:36;27.10;99.90
52321;DHT22;38261;54.090;13.382;2023-07-13T04:21:58;27.40;99.90
52321;DHT22;38261;54.090;13.382;2023-07-13T04:24:42;28.10;99.90
52321;DHT22;38261;54.090;13.382;2023-07-13T04:26:06;28.40;99.90
52321;DHT22;38261;54.090;13.382;2023-07-13T04:27:28;28.70;99.90
52321;DHT22;38261;54.090;13.382;2023-07-13T04:28:51;29.00;99.90
52321;DHT22;38261;54.090;13.382;2023-07-13T04:30:13;29.10;99.90
52321;DHT22;38261;54.090;13.382;2023-07-13T04:31:36;28.70;99.90
52321;DHT22;38261;54.090;13.382;2023-07-13T04:32:58;28.10;99.90
52321;DHT22;38261;54.090;13.382;2023-07-13T04:34:20;27.40;99.90
52321;DHT22;38261;54.090;13.382;2023-07-13T04:35:43;26.90;99.90
52321;DHT22;38261;54.090;13.382;2023-07-13T04:37:05;26.90;99.90
52321;DHT22;38261;54.090;13.382;2023-07-13T04:38:29;27.00;99.90
52321;DHT22;38261;54.090;13.382;2023-07-13T04:39:52;27.40;99.90
52321;DHT22;38261;54.090;13.382;2023-07-13T04:41:15;27.90;99.90
52321;DHT22;38261;54.090;13.382;2023-07-13T04:42:37;28.40;99.90
52321;DHT22;38261;54.090;13.382;2023-07-13T04:44:02;28.70;99.90
52321;DHT22;38261;54.090;13.382;2023-07-13T04:45:25;28.60;99.90
52321;DHT22;38261;54.090;13.382;2023-07-13T04:46:47;28.00;99.90
52321;DHT22;38261;54.090;13.382;2023-07-13T04:48:09;27.30;99.90
52321;DHT22;38261;54.090;13.382;2023-07-13T04:49:31;26.60;99.90
52321;DHT22;38261;54.090;13.382;2023-07-13T04:50:57;25.90;99.90
52321;DHT22;38261;54.090;13.382;2023-07-13T04:52:20;25.30;99.90
52321;DHT22;38261;54.090;13.382;2023-07-13T04:53:43;24.80;99.90
52321;DHT22;38261;54.090;13.382;2023-07-13T04:55:05;24.30;99.90
52321;DHT22;38261;54.090;13.382;2023-07-13T04:56:27;24.00;99.90
52321;DHT22;38261;54.090;13.382;2023-07-13T04:57:50;23.90;99.90
52321;DHT22;38261;54.090;13.382;2023-07-13T04:59:12;23.80;99.90
52321;DHT22;38261;54.090;13.382;2023-07-13T05:00:34;23.80;99.90
52321;DHT22;38261;54.090;13.382;2023-07-13T05:01:56;23.80;99.90
52321;DHT22;38261;54.090;13.382;2023-07-13T05:03:19;23.80;99.90
52321;DHT22;38261;54.090;13.382;2023-07-13T05:04:41;24.10;99.90
52321;DHT22;38261;54.090;13.382;2023-07-13T05:06:06;24.70;99.90
52321;DHT22;38261;54.090;13.382;2023-07-13T05:07:28;25.40;99.90
52321;DHT22;38261;54.090;13.382;2023-07-13T05:08:50;25.90;99.90
52321;DHT22;38261;54.090;13.382;2023-07-13T05:10:12;26.60;99.90
52321;DHT22;38261;54.090;13.382;2023-07-13T05:11:34;27.10;99.90
52321;DHT22;38261;54.090;13.382;2023-07-13T05:12:57;27.50;99.90
52321;DHT22;38261;54.090;13.382;2023-07-13T05:14:19;27.80;99.90
52321;DHT22;38261;54.090;13.382;2023-07-13T05:15:41;28.10;99.90
52321;DHT22;38261;54.090;13.382;2023-07-13T05:17:03;28.30;99.90
52321;DHT22;38261;54.090;13.382;2023-07-13T05:18:26;28.40;99.90
52321;DHT22;38261;54.090;13.382;2023-07-13T05:19:48;28.40;99.90
52321;DHT22;38261;54.090;13.382;2023-07-13T05:21:11;28.40;99.90
52321;DHT22;38261;54.090;13.382;2023-07-13T05:22:34;28.40;99.90
52321;DHT22;38261;54.090;13.382;2023-07-13T05:23:57;28.40;99.90
52321;DHT22;38261;54.090;13.382;2023-07-13T05:25:21;28.50;99.90
52321;DHT22;38261;54.090;13.382;2023-07-13T05:26:43;28.80;99.90
52321;DHT22;38261;54.090;13.382;2023-07-13T05:28:06;29.20;99.90
52321;DHT22;38261;54.090;13.382;2023-07-13T05:29:28;29.60;99.90
52321;DHT22;38261;54.090;13.382;2023-07-13T05:30:50;30.00;99.90
52321;DHT22;38261;54.090;13.382;2023-07-13T05:32:13;30.30;99.90
52321;DHT22;38261;54.090;13.382;2023-07-13T05:33:36;30.70;99.90
52321;DHT22;38261;54.090;13.382;2023-07-13T05:34:58;31.00;99.90
52321;DHT22;38261;54.090;13.382;2023-07-13T05:36:20;31.20;99.90
52321;DHT22;38261;54.090;13.382;2023-07-13T05:37:42;31.40;99.90
52321;DHT22;38261;54.090;13.382;2023-07-13T05:39:04;31.70;99.90
52321;DHT22;38261;54.090;13.382;2023-07-13T05:40:26;31.90;99.90
52321;DHT22;38261;54.090;13.382;2023-07-13T05:41:49;31.80;99.90
52321;DHT22;38261;54.090;13.382;2023-07-13T05:43:12;31.50;99.90
52321;DHT22;38261;54.090;13.382;2023-07-13T05:44:34;31.40;99.90
52321;DHT22;38261;54.090;13.382;2023-07-13T05:45:57;31.20;99.90
52321;DHT22;38261;54.090;13.382;2023-07-13T05:47:19;31.30;99.90
52321;DHT22;38261;54.090;13.382;2023-07-13T05:48:42;31.20;99.90
52321;DHT22;38261;54.090;13.382;2023-07-13T05:50:05;31.40;99.90
52321;DHT22;38261;54.090;13.382;2023-07-13T05:51:27;31.50;99.90
52321;DHT22;38261;54.090;13.382;2023-07-13T05:52:49;31.70;99.90
52321;DHT22;38261;54.090;13.382;2023-07-13T05:54:12;31.60;99.90
52321;DHT22;38261;54.090;13.382;2023-07-13T05:55:34;31.70;99.90
52321;DHT22;38261;54.090;13.382;2023-07-13T05:56:57;31.60;99.90
52321;DHT22;38261;54.090;13.382;2023-07-13T05:58:19;31.50;99.90
52321;DHT22;38261;54.090;13.382;2023-07-13T05:59:41;31.40;99.90
52321;DHT22;38261;54.090;13.382;2023-07-13T06:01:12;31.60;99.90
52321;DHT22;38261;54.090;13.382;2023-07-13T06:02:35;31.70;99.90
52321;DHT22;38261;54.090;13.382;2023-07-13T06:03:58;31.60;99.90
52321;DHT22;38261;54.090;13.382;2023-07-13T06:05:21;31.60;99.90
52321;DHT22;38261;54.090;13.382;2023-07-13T06:06:43;31.40;99.90
52321;DHT22;38261;54.090;13.382;2023-07-13T06:08:07;31.40;99.90
52321;DHT22;38261;54.090;13.382;2023-07-13T06:09:29;30.90;99.90
52321;DHT22;38261;54.090;13.382;2023-07-13T06:10:51;30.80;99.90
52321;DHT22;38261;54.090;13.382;2023-07-13T06:12:13;30.70;99.90
52321;DHT22;38261;54.090;13.382;2023-07-13T06:13:36;30.60;99.90
52321;DHT22;38261;54.090;13.382;2023-07-13T06:14:58;30.60;99.90
52321;DHT22;38261;54.090;13.382;2023-07-13T06:16:20;30.60;99.90
52321;DHT22;38261;54.090;13.382;2023-07-13T06:17:42;30.40;99.90
52321;DHT22;38261;54.090;13.382;2023-07-13T06:19:05;30.30;99.90
52321;DHT22;38261;54.090;13.382;2023-07-13T06:20:28;30.30;99.90
52321;DHT22;38261;54.090;13.382;2023-07-13T06:21:51;30.20;99.90
52321;DHT22;38261;54.090;13.382;2023-07-13T06:23:15;30.40;99.90
52321;DHT22;38261;54.090;13.382;2023-07-13T06:24:37;30.30;99.90
52321;DHT22;38261;54.090;13.382;2023-07-13T06:25:59;30.00;99.90
52321;DHT22;38261;54.090;13.382;2023-07-13T06:27:21;30.00;99.90
52321;DHT22;38261;54.090;13.382;2023-07-13T06:28:43;29.70;99.90
52321;DHT22;38261;54.090;13.382;2023-07-13T06:30:06;29.60;99.90
52321;DHT22;38261;54.090;13.382;2023-07-13T06:31:28;29.60;99.90
52321;DHT22;38261;54.090;13.382;2023-07-13T06:32:50;29.30;99.90
52321;DHT22;38261;54.090;13.382;2023-07-13T06:34:12;28.60;99.90
52321;DHT22;38261;54.090;13.382;2023-07-13T06:35:35;28.10;99.90
52321;DHT22;38261;54.090;13.382;2023-07-13T06:36:57;27.60;99.90
52321;DHT22;38261;54.090;13.382;2023-07-13T06:38:19;27.00;99.90
52321;DHT22;38261;54.090;13.382;2023-07-13T06:39:41;26.40;99.90
52321;DHT22;38261;54.090;13.382;2023-07-13T06:41:05;25.90;99.90
52321;DHT22;38261;54.090;13.382;2023-07-13T06:42:27;25.40;99.90
52321;DHT22;38261;54.090;13.382;2023-07-13T06:43:49;24.90;99.90
52321;DHT22;38261;54.090;13.382;2023-07-13T06:45:11;24.60;99.90
52321;DHT22;38261;54.090;13.382;2023-07-13T06:46:33;24.40;99.90
52321;DHT22;38261;54.090;13.382;2023-07-13T06:47:55;24.20;99.90
52321;DHT22;38261;54.090;13.382;2023-07-13T06:49:18;24.00;99.90
52321;DHT22;38261;54.090;13.382;2023-07-13T06:50:41;23.80;99.90
52321;DHT22;38261;54.090;13.382;2023-07-13T06:52:04;23.50;99.90
52321;DHT22;38261;54.090;13.382;2023-07-13T06:53:26;23.40;99.90
52321;DHT22;38261;54.090;13.382;2023-07-13T06:54:48;23.40;99.90
52321;DHT22;38261;54.090;13.382;2023-07-13T06:56:10;23.30;99.90
52321;DHT22;38261;54.090;13.382;2023-07-13T06:57:32;23.30;99.90
52321;DHT22;38261;54.090;13.382;2023-07-13T06:58:54;23.20;99.90
52321;DHT22;38261;54.090;13.382;2023-07-13T07:00:17;23.30;99.90
52321;DHT22;38261;54.090;13.382;2023-07-13T07:01:39;23.30;99.90
52321;DHT22;38261;54.090;13.382;2023-07-13T07:03:03;23.40;99.90
52321;DHT22;38261;54.090;13.382;2023-07-13T07:04:25;23.40;99.90
52321;DHT22;38261;54.090;13.382;2023-07-13T07:05:47;23.40;99.90
52321;DHT22;38261;54.090;13.382;2023-07-13T07:07:10;23.40;99.90
52321;DHT22;38261;54.090;13.382;2023-07-13T07:08:32;23.50;99.90
52321;DHT22;38261;54.090;13.382;2023-07-13T07:09:54;23.60;99.90
52321;DHT22;38261;54.090;13.382;2023-07-13T07:11:22;23.70;99.90
52321;DHT22;38261;54.090;13.382;2023-07-13T07:12:44;23.70;99.90
52321;DHT22;38261;54.090;13.382;2023-07-13T07:14:07;23.50;99.90
52321;DHT22;38261;54.090;13.382;2023-07-13T07:15:30;23.40;99.90
52321;DHT22;38261;54.090;13.382;2023-07-13T07:16:52;23.40;99.90
52321;DHT22;38261;54.090;13.382;2023-07-13T07:18:14;23.40;99.90
52321;DHT22;38261;54.090;13.382;2023-07-13T07:19:37;23.30;99.90
52321;DHT22;38261;54.090;13.382;2023-07-13T07:20:59;23.30;99.90
52321;DHT22;38261;54.090;13.382;2023-07-13T07:22:21;23.30;99.90
52321;DHT22;38261;54.090;13.382;2023-07-13T07:23:44;23.20;99.90
52321;DHT22;38261;54.090;13.382;2023-07-13T07:25:06;23.20;99.90
52321;DHT22;38261;54.090;13.382;2023-07-13T07:26:28;23.20;99.90
52321;DHT22;38261;54.090;13.382;2023-07-13T07:28:11;23.10;99.90
52321;DHT22;38261;54.090;13.382;2023-07-13T07:29:36;23.10;99.90
52321;DHT22;38261;54.090;13.382;2023-07-13T07:31:01;23.00;99.90
52321;DHT22;38261;54.090;13.382;2023-07-13T07:32:30;23.00;99.90
52321;DHT22;38261;54.090;13.382;2023-07-13T07:34:12;23.10;99.90
52321;DHT22;38261;54.090;13.382;2023-07-13T07:35:34;23.30;99.90
52321;DHT22;38261;54.090;13.382;2023-07-13T07:37:03;23.40;99.90
52321;DHT22;38261;54.090;13.382;2023-07-13T07:38:28;23.60;99.90
52321;DHT22;38261;54.090;13.382;2023-07-13T07:39:50;23.50;99.90
52321;DHT22;38261;54.090;13.382;2023-07-13T07:41:32;23.50;99.90
52321;DHT22;38261;54.090;13.382;2023-07-13T07:42:57;23.60;99.90
52321;DHT22;38261;54.090;13.382;2023-07-13T07:44:20;23.50;99.90
52321;DHT22;38261;54.090;13.382;2023-07-13T07:45:44;23.50;99.90
52321;DHT22;38261;54.090;13.382;2023-07-13T07:47:08;23.50;99.90
52321;DHT22;38261;54.090;13.382;2023-07-13T07:48:30;23.50;99.90
52321;DHT22;38261;54.090;13.382;2023-07-13T07:49:52;23.50;99.90
52321;DHT22;38261;54.090;13.382;2023-07-13T07:51:15;23.60;99.90
52321;DHT22;38261;54.090;13.382;2023-07-13T07:52:37;23.70;99.90
52321;DHT22;38261;54.090;13.382;2023-07-13T07:53:59;23.80;99.90
52321;DHT22;38261;54.090;13.382;2023-07-13T07:55:22;23.80;99.90
52321;DHT22;38261;54.090;13.382;2023-07-13T07:56:47;23.90;99.90
52321;DHT22;38261;54.090;13.382;2023-07-13T07:58:29;24.00;99.90
52321;DHT22;38261;54.090;13.382;2023-07-13T07:59:54;24.20;99.90
52321;DHT22;38261;54.090;13.382;2023-07-13T08:01:37;24.30;99.90
52321;DHT22;38261;54.090;13.382;2023-07-13T08:03:02;24.40;99.90
52321;DHT22;38261;54.090;13.382;2023-07-13T08:04:44;24.40;99.90
52321;DHT22;38261;54.090;13.382;2023-07-13T08:06:09;24.60;99.90
52321;DHT22;38261;54.090;13.382;2023-07-13T08:07:51;24.60;99.90
52321;DHT22;38261;54.090;13.382;2023-07-13T08:09:14;24.50;99.90
52321;DHT22;38261;54.090;13.382;2023-07-13T08:10:36;24.50;99.90
52321;DHT22;38261;54.090;13.382;2023-07-13T08:11:59;24.40;99.90
52321;DHT22;38261;54.090;13.382;2023-07-13T08:13:24;24.30;99.90
52321;DHT22;38261;54.090;13.382;2023-07-13T08:14:50;24.30;99.90
52321;DHT22;38261;54.090;13.382;2023-07-13T08:16:15;24.20;99.90
52321;DHT22;38261;54.090;13.382;2023-07-13T08:17:37;24.30;99.90
52321;DHT22;38261;54.090;13.382;2023-07-13T08:19:00;24.30;99.90
52321;DHT22;38261;54.090;13.382;2023-07-13T08:20:22;24.40;99.90
52321;DHT22;38261;54.090;13.382;2023-07-13T08:21:44;24.40;99.90
52321;DHT22;38261;54.090;13.382;2023-07-13T08:23:07;24.50;99.90
52321;DHT22;38261;54.090;13.382;2023-07-13T08:24:31;24.40;99.90
52321;DHT22;38261;54.090;13.382;2023-07-13T08:25:53;24.20;99.90
52321;DHT22;38261;54.090;13.382;2023-07-13T08:27:16;24.20;99.90
52321;DHT22;38261;54.090;13.382;2023-07-13T08:28:38;24.20;99.90
52321;DHT22;38261;54.090;13.382;2023-07-13T08:30:00;24.10;99.90
52321;DHT22;38261;54.090;13.382;2023-07-13T08:31:22;24.20;99.90
52321;DHT22;38261;54.090;13.382;2023-07-13T08:32:45;24.40;99.90
52321;DHT22;38261;54.090;13.382;2023-07-13T08:34:07;24.40;99.90
52321;DHT22;38261;54.090;13.382;2023-07-13T08:35:29;24.40;99.90
52321;DHT22;38261;54.090;13.382;2023-07-13T08:36:51;24.10;99.90
52321;DHT22;38261;54.090;13.382;2023-07-13T08:38:13;23.80;99.90
52321;DHT22;38261;54.090;13.382;2023-07-13T08:39:36;23.70;99.90